Time;durP1;ratioP1;P1;durP2;ratioP2;P2;SDS_P1;SDS_P2;PMS_P1;PMS_P2;Temp;Humidity;BMP_temperature;BMP_pressure;BME280_temperature;BME280_humidity;BME280_pressure;Samples;Min_cycle;Max_cycle;Signal;HPM_P1;HPM_P2
2022/07/08 00:00:57;;;;;;;11.00;4.27;;;;;;;13.35;100.00;102416.31;4951146;28;20440;-51
2022/07/08 00:03:25;;;;;;;17.77;5.20;;;;;;;13.32;100.00;102409.47;4950390;28;20499;-49
2022/07/08 00:05:53;;;;;;;10.73;4.63;;;;;;;13.34;100.00;102408.47;4951187;28;20547;-50
2022/07/08 00:08:21;;;;;;;18.47;6.40;;;;;;;13.29;100.00;102417.84;4951125;28;20447;-51
2022/07/08 00:10:49;;;;;;;14.97;4.80;;;;;;;13.30;100.00;102418.69;4951148;28;20531;-50
2022/07/08 00:13:17;;;;;;;12.70;5.37;;;;;;;13.30;100.00;102418.69;4950262;28;20829;-51
2022/07/08 00:15:44;;;;;;;14.13;4.87;;;;;;;13.30;100.00;102419.53;4950595;28;20447;-51
2022/07/08 00:18:13;;;;;;;7.30;5.53;;;;;;;13.25;100.00;102421.91;4951177;28;20447;-50
2022/07/08 00:20:41;;;;;;;16.23;6.17;;;;;;;13.23;100.00;102421.22;4950856;28;20442;-48
2022/07/08 00:23:09;;;;;;;11.67;5.03;;;;;;;13.24;100.00;102416.69;4969666;28;21044;-51
2022/07/08 00:25:37;;;;;;;10.77;5.00;;;;;;;13.21;100.00;102409.00;5009729;28;20517;-51
2022/07/08 00:28:05;;;;;;;7.97;4.50;;;;;;;13.19;100.00;102416.38;5051518;28;20440;-51
2022/07/08 00:30:32;;;;;;;15.17;4.90;;;;;;;13.19;100.00;102421.75;5051109;28;20481;-50
2022/07/08 00:33:00;;;;;;;16.00;5.47;;;;;;;13.17;100.00;102419.22;5001440;28;20468;-50
2022/07/08 00:35:29;;;;;;;7.00;4.20;;;;;;;13.14;100.00;102416.09;4977082;28;21000;-48
2022/07/08 00:37:56;;;;;;;15.07;5.90;;;;;;;13.09;100.00;102427.31;4950699;28;20959;-51
2022/07/08 00:40:24;;;;;;;10.60;5.10;;;;;;;13.06;100.00;102426.78;4950709;28;20519;-51
2022/07/08 00:42:52;;;;;;;12.43;4.80;;;;;;;13.01;100.00;102429.13;4949842;28;20910;-48
2022/07/08 00:45:20;;;;;;;11.47;5.37;;;;;;;12.95;100.00;102436.03;4951196;28;20523;-48
2022/07/08 00:47:47;;;;;;;14.03;5.70;;;;;;;12.94;100.00;102431.66;4950710;28;20557;-48
2022/07/08 00:50:15;;;;;;;13.93;4.67;;;;;;;12.95;100.00;102437.84;4950598;28;20485;-47
2022/07/08 00:52:45;;;;;;;7.27;4.30;;;;;;;12.92;100.00;102438.19;4949833;28;20475;-47
2022/07/08 00:55:14;;;;;;;22.30;6.47;;;;;;;12.96;100.00;102432.31;4950468;28;20436;-51
2022/07/08 00:57:41;;;;;;;20.93;5.60;;;;;;;12.96;100.00;102436.84;4950549;28;20464;-47
2022/07/08 01:00:10;;;;;;;18.43;6.60;;;;;;;12.98;100.00;102438.34;4950333;28;20536;-47
2022/07/08 01:02:37;;;;;;;9.93;4.83;;;;;;;12.96;100.00;102431.50;4949841;28;20551;-47
2022/07/08 01:05:06;;;;;;;16.33;6.17;;;;;;;13.00;100.00;102428.28;4950311;28;20438;-50
2022/07/08 01:07:34;;;;;;;18.63;5.53;;;;;;;13.03;100.00;102433.31;4950198;28;20985;-48
2022/07/08 01:10:04;;;;;;;12.47;5.53;;;;;;;12.99;100.00;102437.31;4950178;28;20482;-49
2022/07/08 01:12:32;;;;;;;14.37;5.30;;;;;;;12.98;100.00;102437.50;4949653;28;20993;-47
2022/07/08 01:14:59;;;;;;;17.37;5.67;;;;;;;13.00;100.00;102432.81;4950486;28;20435;-47
2022/07/08 01:17:41;;;;;;;8.67;4.70;;;;;;;12.98;100.00;102433.00;4949989;28;21010;-49
2022/07/08 01:20:10;;;;;;;8.83;4.50;;;;;;;13.04;100.00;102440.34;4950206;28;20970;-51
2022/07/08 01:22:40;;;;;;;14.07;4.90;;;;;;;12.97;100.00;102434.00;4949668;28;20554;-51
2022/07/08 01:25:09;;;;;;;13.40;4.93;;;;;;;12.97;100.00;102425.13;4950385;28;20535;-48
2022/07/08 01:27:37;;;;;;;9.93;4.63;;;;;;;13.01;100.00;102431.81;4950024;28;21216;-49
2022/07/08 01:30:06;;;;;;;27.63;5.33;;;;;;;12.97;100.00;102423.28;4950113;28;20482;-47
2022/07/08 01:32:36;;;;;;;13.97;4.57;;;;;;;12.98;100.00;102435.69;4986643;28;20543;-49
2022/07/08 01:35:05;;;;;;;9.40;4.90;;;;;;;12.98;100.00;102437.50;5009001;28;20563;-51
2022/07/08 01:37:32;;;;;;;16.37;5.03;;;;;;;13.01;100.00;102442.53;5050830;28;20459;-47
2022/07/08 01:40:01;;;;;;;7.60;4.20;;;;;;;13.06;100.00;102442.84;5051012;28;20429;-48
2022/07/08 01:42:29;;;;;;;9.50;4.10;;;;;;;13.06;100.00;102449.03;5050219;28;20501;-48
2022/07/08 01:44:57;;;;;;;12.67;4.73;;;;;;;13.01;100.00;102437.16;5054051;28;20518;-50
2022/07/08 01:47:24;;;;;;;14.63;4.87;;;;;;;13.01;100.00;102447.88;5054227;28;20534;-47
2022/07/08 01:49:52;;;;;;;11.90;4.50;;;;;;;13.04;100.00;102443.03;5054228;28;20471;-52
2022/07/08 01:52:20;;;;;;;18.97;5.73;;;;;;;13.01;100.00;102447.88;5053753;28;20562;-47
2022/07/08 01:54:49;;;;;;;15.23;5.37;;;;;;;12.95;100.00;102441.38;5054351;28;20521;-47
2022/07/08 01:57:18;;;;;;;9.97;4.90;;;;;;;13.01;100.00;102446.03;5054132;28;20456;-50
2022/07/08 01:59:47;;;;;;;12.93;4.73;;;;;;;13.06;100.00;102450.88;5054245;28;20455;-49
2022/07/08 02:02:17;;;;;;;12.80;4.80;;;;;;;13.04;100.00;102458.25;5053660;28;20487;-46
2022/07/08 02:04:44;;;;;;;15.53;4.43;;;;;;;13.03;100.00;102457.41;5054011;28;20438;-48
2022/07/08 02:07:13;;;;;;;14.13;5.63;;;;;;;13.03;100.00;102457.41;5054068;28;20455;-47
2022/07/08 02:09:41;;;;;;;14.40;5.20;;;;;;;12.98;100.00;102467.81;5053931;28;20436;-46
2022/07/08 02:12:18;;;;;;;11.27;4.73;;;;;;;12.97;100.00;102457.25;5053180;28;20999;-44
2022/07/08 02:14:47;;;;;;;13.43;4.47;;;;;;;12.99;100.00;102463.28;5053763;28;20517;-48
2022/07/08 02:17:15;;;;;;;11.00;4.80;;;;;;;12.99;100.00;102464.09;5053713;28;20558;-44
2022/07/08 02:19:43;;;;;;;8.83;4.60;;;;;;;13.00;100.00;102464.94;5053840;28;20432;-44
2022/07/08 02:22:12;;;;;;;7.97;4.67;;;;;;;12.98;100.00;102464.28;5053144;28;20538;-47
2022/07/08 02:24:39;;;;;;;16.50;4.97;;;;;;;12.97;100.00;102467.97;5053568;28;20530;-47
2022/07/08 02:27:07;;;;;;;8.13;4.20;;;;;;;13.02;100.00;102463.75;5053452;28;20541;-46
2022/07/08 02:29:35;;;;;;;13.57;4.20;;;;;;;13.06;100.00;102458.91;5053655;28;20782;-44
2022/07/08 02:32:05;;;;;;;8.40;4.50;;;;;;;13.04;100.00;102461.78;5030339;28;20476;-46
2022/07/08 02:34:33;;;;;;;11.53;4.23;;;;;;;13.00;100.00;102470.31;4994295;28;20512;-47
2022/07/08 02:37:01;;;;;;;12.57;4.63;;;;;;;12.93;100.00;102464.78;4952413;28;20460;-50
2022/07/08 02:39:28;;;;;;;9.53;4.57;;;;;;;12.88;100.00;102469.00;4952311;28;20538;-47
2022/07/08 02:41:56;;;;;;;10.63;4.10;;;;;;;12.84;100.00;102473.03;4952028;28;20470;-45
2022/07/08 02:44:24;;;;;;;11.00;5.70;;;;;;;12.80;100.00;102474.34;4952306;28;20445;-48
2022/07/08 02:46:51;;;;;;;13.73;4.50;;;;;;;12.76;100.00;102474.69;4952239;28;21001;-45
2022/07/08 02:49:21;;;;;;;10.97;4.87;;;;;;;12.71;100.00;102473.53;4952445;28;20428;-45
2022/07/08 02:51:48;;;;;;;11.70;4.73;;;;;;;12.69;100.00;102472.88;4951819;28;20468;-47
2022/07/08 02:54:16;;;;;;;14.43;4.73;;;;;;;12.67;100.00;102473.03;4951585;28;20957;-47
2022/07/08 02:56:43;;;;;;;13.60;4.30;;;;;;;12.65;100.00;102475.06;4952073;28;20542;-48
2022/07/08 02:59:11;;;;;;;12.27;4.57;;;;;;;12.64;100.00;102470.69;4952330;28;20531;-44
2022/07/08 03:01:39;;;;;;;12.47;4.60;;;;;;;12.61;100.00;102467.50;4951683;28;20522;-45
2022/07/08 03:04:06;;;;;;;7.63;5.10;;;;;;;12.62;100.00;102478.06;4951853;28;20440;-49
2022/07/08 03:06:35;;;;;;;10.43;4.90;;;;;;;12.63;100.00;102474.34;4951865;28;20826;-49
2022/07/08 03:09:03;;;;;;;10.70;5.10;;;;;;;12.65;100.00;102472.38;4952220;28;20813;-45
2022/07/08 03:11:31;;;;;;;11.07;4.47;;;;;;;12.66;100.00;102479.38;4951560;28;20475;-49
2022/07/08 03:13:58;;;;;;;10.50;4.77;;;;;;;12.70;100.00;102475.38;4951823;28;20949;-47
2022/07/08 03:16:32;;;;;;;14.73;4.80;;;;;;;12.72;100.00;102469.88;4951813;28;20472;-48
2022/07/08 03:19:00;;;;;;;11.30;5.47;;;;;;;12.78;100.00;102475.34;4951749;28;20436;-49
2022/07/08 03:21:27;;;;;;;12.80;4.97;;;;;;;12.85;100.00;102483.56;4951361;28;20531;-46
2022/07/08 03:23:56;;;;;;;6.77;4.43;;;;;;;12.91;100.00;102490.06;4951682;28;20811;-47
2022/07/08 03:26:24;;;;;;;11.30;5.57;;;;;;;13.01;100.00;102483.53;4951741;28;20492;-48
2022/07/08 03:28:52;;;;;;;16.07;4.90;;;;;;;13.10;100.00;102476.34;4951820;28;20439;-45
2022/07/08 03:31:19;;;;;;;11.37;4.97;;;;;;;13.30;100.00;102477.63;4951605;28;20475;-45
2022/07/08 03:33:47;;;;;;;8.13;4.27;;;;;;;13.69;100.00;102478.47;4997137;28;20498;-44
2022/07/08 03:36:15;;;;;;;7.57;4.00;;;;;;;13.74;100.00;102480.63;5052364;28;20537;-44
2022/07/08 03:38:42;;;;;;;11.97;4.80;;;;;;;13.72;100.00;102485.34;5052395;28;20437;-49
2022/07/08 03:41:20;;;;;;;9.50;4.20;;;;;;;13.66;100.00;102486.88;5052337;28;20435;-45
2022/07/08 03:43:50;;;;;;;6.77;3.90;;;;;;;13.59;99.57;102482.41;5051723;28;20437;-44
2022/07/08 03:46:18;;;;;;;17.33;4.27;;;;;;;13.54;100.00;102493.63;5051988;28;20859;-45
2022/07/08 03:48:46;;;;;;;9.27;4.00;;;;;;;13.58;100.00;102499.47;5052327;28;20432;-45
2022/07/08 03:51:16;;;;;;;9.53;4.40;;;;;;;13.68;100.00;102498.25;5052041;28;20477;-44
2022/07/08 03:53:44;;;;;;;8.00;4.10;;;;;;;13.63;100.00;102497.94;5051256;28;20455;-44
2022/07/08 03:56:13;;;;;;;18.27;4.93;;;;;;;13.68;100.00;102497.41;5051984;28;20477;-44
2022/07/08 03:58:41;;;;;;;11.83;4.90;;;;;;;13.76;100.00;102498.25;5051798;28;20577;-47
2022/07/08 04:01:09;;;;;;;8.60;4.60;;;;;;;13.83;100.00;102501.88;5051856;28;21019;-47
2022/07/08 04:03:37;;;;;;;9.40;4.60;;;;;;;13.91;99.56;102503.69;5051145;28;20538;-47
2022/07/08 04:06:05;;;;;;;11.27;5.47;;;;;;;14.01;99.56;102503.47;5051264;28;20546;-47
2022/07/08 04:08:32;;;;;;;10.70;4.50;;;;;;;13.97;99.11;102508.34;5051920;28;20515;-46
2022/07/08 04:11:00;;;;;;;12.80;4.80;;;;;;;14.11;99.00;102504.06;5051695;28;20810;-45
2022/07/08 04:13:29;;;;;;;8.20;4.17;;;;;;;14.21;98.11;102504.69;5050804;28;20554;-45
2022/07/08 04:15:57;;;;;;;6.40;5.00;;;;;;;14.25;98.26;102505.97;5051413;28;20549;-45
2022/07/08 04:18:25;;;;;;;9.80;4.80;;;;;;;14.34;97.64;102504.94;5051890;28;20492;-46
2022/07/08 04:20:54;;;;;;;11.00;4.33;;;;;;;14.57;96.97;102504.97;5051703;28;20431;-46
2022/07/08 04:23:21;;;;;;;12.00;4.53;;;;;;;14.74;96.04;102507.34;5050909;28;20467;-47
2022/07/08 04:25:56;;;;;;;8.63;4.60;;;;;;;14.86;93.89;102513.09;5051708;28;20496;-46
2022/07/08 04:28:23;;;;;;;12.93;4.17;;;;;;;14.91;94.47;102522.28;5051770;28;20431;-48
2022/07/08 04:30:52;;;;;;;10.80;5.23;;;;;;;15.03;93.71;102519.97;5051316;28;20437;-45
2022/07/08 04:33:20;;;;;;;14.07;5.33;;;;;;;15.82;92.72;102527.38;5002153;28;20545;-45
2022/07/08 04:35:48;;;;;;;8.70;3.97;;;;;;;17.12;86.80;102529.72;4962849;28;20543;-45
2022/07/08 04:38:15;;;;;;;15.37;4.60;;;;;;;18.26;75.93;102528.25;4950628;28;20440;-47
2022/07/08 04:40:43;;;;;;;16.67;4.60;;;;;;;18.96;67.46;102524.19;4950868;28;20438;-50
2022/07/08 04:43:12;;;;;;;9.37;4.47;;;;;;;20.03;69.62;102525.41;4950011;28;20996;-45
2022/07/08 04:45:45;;;;;;;6.40;4.90;;;;;;;20.82;62.41;102514.03;4950681;28;20471;-45
2022/07/08 04:48:14;;;;;;;9.33;5.10;;;;;;;21.73;65.92;102520.44;4950695;28;20474;-46
2022/07/08 04:50:42;;;;;;;12.17;4.70;;;;;;;21.50;59.75;102521.13;4950347;28;20438;-51
2022/07/08 04:53:10;;;;;;;8.93;5.40;;;;;;;20.74;59.99;102534.13;4949837;28;20550;-45
2022/07/08 04:55:37;;;;;;;11.10;5.60;;;;;;;19.41;64.78;102538.75;4950437;28;20924;-45
2022/07/08 04:58:06;;;;;;;9.53;5.57;;;;;;;19.20;67.45;102527.06;4950608;28;21011;-47
2022/07/08 05:00:34;;;;;;;9.97;6.23;;;;;;;18.62;67.91;102536.88;4950567;28;20431;-46
2022/07/08 05:03:02;;;;;;;10.73;5.03;;;;;;;18.02;70.35;102540.44;4949635;28;21071;-47
2022/07/08 05:05:31;;;;;;;9.90;5.60;;;;;;;17.61;73.21;102545.84;4950317;28;20440;-45
2022/07/08 05:07:59;;;;;;;10.10;4.40;;;;;;;17.19;74.87;102545.97;4950274;28;20518;-47
2022/07/08 05:10:28;;;;;;;12.30;4.53;;;;;;;16.63;77.48;102549.63;4950236;28;20530;-45
2022/07/08 05:12:57;;;;;;;8.00;4.97;;;;;;;16.47;77.98;102553.38;4949647;28;20467;-45
2022/07/08 05:15:26;;;;;;;12.23;4.60;;;;;;;16.29;80.98;102544.88;4950306;28;20876;-45
2022/07/08 05:17:54;;;;;;;6.97;5.07;;;;;;;16.15;82.54;102541.22;4951763;28;20461;-46
2022/07/08 05:20:22;;;;;;;13.20;5.93;;;;;;;15.97;82.54;102549.72;4953841;28;20517;-46
2022/07/08 05:22:51;;;;;;;10.93;4.87;;;;;;;15.98;84.24;102539.75;4952944;28;20555;-46
2022/07/08 05:25:19;;;;;;;12.87;5.13;;;;;;;15.95;85.11;102540.97;4952752;28;20966;-49
2022/07/08 05:27:46;;;;;;;11.43;4.47;;;;;;;15.92;85.92;102552.09;4952441;28;20470;-47
2022/07/08 05:30:14;;;;;;;10.27;5.30;;;;;;;15.89;87.59;102551.63;4952223;28;20435;-49
2022/07/08 05:32:42;;;;;;;15.10;5.00;;;;;;;15.87;88.44;102549.16;4993605;28;20852;-48
2022/07/08 05:35:10;;;;;;;12.63;5.40;;;;;;;15.86;88.43;102557.44;5014941;28;20435;-49
2022/07/08 05:37:39;;;;;;;13.07;5.17;;;;;;;15.75;90.13;102556.03;5053519;28;20482;-49
2022/07/08 05:40:11;;;;;;;13.00;5.00;;;;;;;15.79;90.34;102554.66;5053850;28;20522;-47
2022/07/08 05:42:40;;;;;;;10.67;5.13;;;;;;;15.77;90.41;102553.16;5053778;28;20466;-47
2022/07/08 05:45:08;;;;;;;17.57;5.67;;;;;;;15.78;91.20;102541.38;5054318;28;20527;-51
2022/07/08 05:47:36;;;;;;;7.77;5.13;;;;;;;15.71;92.12;102543.97;5054327;28;20447;-46
2022/07/08 05:50:05;;;;;;;11.27;5.50;;;;;;;15.68;92.53;102540.84;5054319;28;20514;-48
2022/07/08 05:52:33;;;;;;;15.40;6.43;;;;;;;15.71;92.67;102554.72;5053575;28;20580;-48
2022/07/08 05:55:01;;;;;;;7.70;4.77;;;;;;;15.75;92.64;102556.03;5054241;28;20521;-47
2022/07/08 05:57:30;;;;;;;8.97;5.33;;;;;;;15.76;92.66;102567.63;5054017;28;20547;-48
2022/07/08 05:59:57;;;;;;;13.80;5.37;;;;;;;15.76;93.47;102571.16;5053761;28;20462;-48
2022/07/08 06:02:25;;;;;;;13.10;5.10;;;;;;;15.72;94.23;102577.91;5053431;28;20463;-50
2022/07/08 06:04:53;;;;;;;13.83;6.10;;;;;;;15.72;95.32;102577.91;5054145;28;20426;-50
2022/07/08 06:07:20;;;;;;;18.23;5.43;;;;;;;15.62;96.74;102569.28;5039690;28;20459;-47
2022/07/08 06:09:48;;;;;;;16.10;6.03;;;;;;;15.51;98.14;102575.13;5011996;28;20433;-46
2022/07/08 06:12:16;;;;;;;13.23;5.50;;;;;;;15.50;98.49;102571.59;5053296;28;20573;-50
2022/07/08 06:14:45;;;;;;;10.03;5.80;;;;;;;15.47;99.50;102580.03;5053672;28;20435;-46
2022/07/08 06:17:12;;;;;;;10.17;5.03;;;;;;;15.41;100.00;102582.63;5053620;28;20558;-51
2022/07/08 06:19:40;;;;;;;9.40;5.10;;;;;;;15.28;100.00;102577.88;5053872;28;20535;-52
2022/07/08 06:22:09;;;;;;;11.00;5.13;;;;;;;15.28;100.00;102572.50;5052989;28;21003;-49
2022/07/08 06:24:36;;;;;;;11.70;5.47;;;;;;;15.25;100.00;102574.69;5053586;28;20489;-48
2022/07/08 06:27:05;;;;;;;15.20;5.30;;;;;;;15.24;100.00;102571.16;5053714;28;20459;-48
2022/07/08 06:29:32;;;;;;;14.00;5.70;;;;;;;15.30;100.00;102575.81;5052842;28;20507;-49
2022/07/08 06:32:01;;;;;;;21.23;5.47;;;;;;;15.42;100.00;102586.94;5033480;28;20467;-47
2022/07/08 06:34:29;;;;;;;15.97;5.53;;;;;;;15.64;100.00;102583.41;4994174;28;20523;-50
2022/07/08 06:36:57;;;;;;;15.47;5.07;;;;;;;15.77;100.00;102585.44;4952315;28;20954;-50
2022/07/08 06:39:24;;;;;;;10.03;5.30;;;;;;;15.93;100.00;102594.16;4952871;28;20535;-54
2022/07/08 06:41:52;;;;;;;20.37;5.50;;;;;;;16.14;100.00;102582.59;4952176;28;20477;-50
2022/07/08 06:44:19;;;;;;;14.60;4.50;;;;;;;16.12;100.00;102583.81;4952517;28;20436;-50
2022/07/08 06:46:47;;;;;;;6.50;4.90;;;;;;;16.05;100.00;102592.66;4952365;28;20562;-51
2022/07/08 06:49:16;;;;;;;11.47;5.27;;;;;;;16.26;100.00;102580.25;4952003;28;20542;-51
2022/07/08 06:51:43;;;;;;;10.30;5.13;;;;;;;16.35;100.00;102573.75;4951641;28;20471;-49
2022/07/08 06:56:56;;;;;;;14.37;5.03;;;;;;;16.49;100.00;102580.94;4952239;28;20550;-51
2022/07/08 06:59:24;;;;;;;9.77;5.10;;;;;;;16.45;100.00;102582.34;4952220;28;20443;-51
2022/07/08 07:01:52;;;;;;;9.10;5.37;;;;;;;16.45;100.00;102579.66;4951530;28;20460;-47
2022/07/08 07:04:21;;;;;;;12.03;4.50;;;;;;;16.44;100.00;102589.59;4951983;28;20434;-49
2022/07/08 07:06:49;;;;;;;13.00;4.50;;;;;;;16.35;100.00;102587.19;4952032;28;20517;-52
2022/07/08 07:09:17;;;;;;;9.73;4.70;;;;;;;16.42;100.00;102590.81;4952112;28;20538;-50
2022/07/08 07:11:44;;;;;;;14.83;4.87;;;;;;;16.41;100.00;102591.81;4951472;28;21061;-49
2022/07/08 07:14:12;;;;;;;10.50;4.37;;;;;;;16.43;100.00;102584.38;4951990;28;20533;-48
2022/07/08 07:16:40;;;;;;;13.60;5.20;;;;;;;16.45;100.00;102595.81;4952224;28;20470;-50
2022/07/08 07:19:08;;;;;;;9.30;3.67;;;;;;;16.43;100.00;102598.69;4952420;28;20856;-51
2022/07/08 07:21:37;;;;;;;10.30;4.57;;;;;;;16.43;100.00;102605.94;4951424;28;20471;-50
2022/07/08 07:24:06;;;;;;;12.30;4.47;;;;;;;16.37;100.00;102604.00;4951678;28;20507;-48
2022/07/08 07:26:33;;;;;;;10.37;4.10;;;;;;;16.23;100.00;102612.94;4951652;28;20556;-54
2022/07/08 07:29:01;;;;;;;5.87;3.83;;;;;;;16.21;100.00;102615.84;4950423;28;20804;-50
2022/07/08 07:31:29;;;;;;;5.10;3.53;;;;;;;16.18;100.00;102600.06;4951305;28;20442;-49
2022/07/08 07:33:56;;;;;;;5.10;3.90;;;;;;;16.12;100.00;102605.34;5003733;28;20993;-48
2022/07/08 07:36:24;;;;;;;4.47;4.00;;;;;;;16.14;100.00;102604.13;5052353;28;20545;-47
2022/07/08 07:38:53;;;;;;;7.33;3.30;;;;;;;16.16;100.00;102593.19;5052317;28;20514;-49
2022/07/08 07:41:21;;;;;;;3.73;3.43;;;;;;;16.11;100.00;102611.75;5050804;28;20972;-48
2022/07/08 07:43:49;;;;;;;6.03;3.07;;;;;;;16.20;100.00;102587.25;5051413;28;20837;-50
2022/07/08 07:46:17;;;;;;;3.47;3.17;;;;;;;16.20;100.00;102598.00;5052668;28;20820;-49
2022/07/08 07:48:45;;;;;;;3.30;3.00;;;;;;;16.24;100.00;102591.22;5052284;28;20431;-49
2022/07/08 07:51:13;;;;;;;3.47;2.77;;;;;;;16.17;100.00;102592.16;5052027;28;20518;-47
2022/07/08 07:53:40;;;;;;;3.63;3.13;;;;;;;16.21;100.00;102617.69;5035843;28;20479;-44
2022/07/08 07:56:09;;;;;;;4.93;3.13;;;;;;;16.20;100.00;102616.00;4931949;28;20547;-48
2022/07/08 07:58:38;;;;;;;5.17;3.80;;;;;;;16.12;100.00;102624.19;4931917;28;20532;-47
2022/07/08 08:01:06;;;;;;;4.13;3.37;;;;;;;16.00;100.00;102630.06;4906866;28;20535;-48
2022/07/08 08:03:34;;;;;;;5.10;3.33;;;;;;;15.92;100.00;102623.91;4932013;29;20511;-44
2022/07/08 08:06:04;;;;;;;6.90;3.87;;;;;;;15.72;100.00;102626.34;4931748;29;20464;-44
2022/07/08 08:08:33;;;;;;;4.00;3.20;;;;;;;15.73;99.78;102624.47;4931884;29;20523;-46
2022/07/08 08:11:01;;;;;;;5.73;3.73;;;;;;;15.69;98.97;102623.16;4931187;28;21025;-47
2022/07/08 08:13:31;;;;;;;4.40;3.80;;;;;;;15.74;97.19;102621.59;4931627;29;21258;-46
2022/07/08 08:15:58;;;;;;;7.23;3.63;;;;;;;15.72;98.27;102629.03;4931897;29;20465;-46
2022/07/08 08:18:26;;;;;;;5.50;3.60;;;;;;;15.89;97.83;102627.81;4931861;29;20476;-47
2022/07/08 08:20:54;;;;;;;4.20;3.13;;;;;;;16.05;99.49;102633.00;4931418;28;20436;-47
2022/07/08 08:23:22;;;;;;;8.17;4.40;;;;;;;16.19;100.00;102617.84;4931507;29;20465;-50
2022/07/08 08:25:51;;;;;;;5.33;3.20;;;;;;;16.24;100.00;102618.16;4931307;29;20461;-51
2022/07/08 08:28:18;;;;;;;6.90;3.50;;;;;;;16.39;100.00;102618.13;4931855;29;20532;-47
2022/07/08 08:30:47;;;;;;;4.20;3.37;;;;;;;16.81;100.00;102615.50;4931361;28;20519;-48
2022/07/08 08:33:15;;;;;;;7.97;3.93;;;;;;;17.11;100.00;102616.19;4948990;28;20566;-51
2022/07/08 08:35:43;;;;;;;4.13;3.10;;;;;;;17.22;100.00;102622.91;4952010;28;20439;-50
2022/07/08 08:38:11;;;;;;;3.90;3.43;;;;;;;17.55;100.00;102610.56;4950528;29;20448;-49
2022/07/08 08:40:42;;;;;;;5.47;3.23;;;;;;;18.03;100.00;102600.66;4949948;28;20435;-49
2022/07/08 08:43:09;;;;;;;4.60;3.57;;;;;;;18.77;100.00;102598.84;4949529;28;20442;-51
2022/07/08 08:45:44;;;;;;;3.30;3.00;;;;;;;19.48;96.88;102594.50;4950203;28;20435;-53
2022/07/08 08:48:15;;;;;;;4.00;3.27;;;;;;;20.23;93.06;102591.13;4950438;28;20435;-51
2022/07/08 08:50:55;;;;;;;2.90;2.70;;;;;;;20.73;89.13;102591.28;4950101;28;20428;-49
2022/07/08 08:53:26;;;;;;;4.10;3.17;;;;;;;20.52;84.43;102583.53;4952554;28;20572;-52
2022/07/08 08:55:55;;;;;;;3.00;2.67;;;;;;;20.01;84.78;102594.38;4953558;28;20460;-52
2022/07/08 08:58:22;;;;;;;3.03;2.73;;;;;;;19.54;86.84;102600.94;4953958;28;20478;-53
2022/07/08 09:00:50;;;;;;;3.30;2.47;;;;;;;19.60;87.17;102598.22;4953290;28;20525;-48
2022/07/08 09:03:19;;;;;;;3.43;2.90;;;;;;;19.57;88.16;102597.81;4953832;28;20443;-48
2022/07/08 09:05:48;;;;;;;3.13;2.93;;;;;;;19.43;87.78;102596.16;4953748;28;20459;-50
2022/07/08 09:08:16;;;;;;;2.53;2.20;;;;;;;19.36;89.03;102604.25;4953851;28;20530;-53
2022/07/08 09:10:43;;;;;;;4.90;2.40;;;;;;;18.87;89.60;102601.13;4952943;28;20434;-49
2022/07/08 09:13:12;;;;;;;3.13;2.93;;;;;;;18.43;91.35;102598.94;4953381;28;20439;-50
2022/07/08 09:15:41;;;;;;;3.03;2.70;;;;;;;18.07;93.98;102607.34;4953712;28;20535;-54
2022/07/08 09:18:11;;;;;;;4.63;2.57;;;;;;;18.10;94.80;102607.72;4953866;28;20966;-48
2022/07/08 09:20:42;;;;;;;2.67;2.50;;;;;;;18.15;93.70;102609.84;4953187;28;20438;-50
2022/07/08 09:23:12;;;;;;;4.20;2.63;;;;;;;18.58;93.68;102602.31;4953372;28;20518;-49
2022/07/08 09:25:40;;;;;;;2.60;2.40;;;;;;;18.95;90.13;102598.22;4952911;28;20875;-49
2022/07/08 09:28:09;;;;;;;2.80;2.60;;;;;;;19.58;84.13;102594.91;4953697;28;20450;-48
2022/07/08 09:30:39;;;;;;;2.50;2.30;;;;;;;19.63;82.29;102594.25;4953655;28;20463;-52
2022/07/08 09:33:06;;;;;;;5.03;2.40;;;;;;;19.25;82.66;102594.06;4994805;28;20533;-50
2022/07/08 09:35:36;;;;;;;2.47;2.20;;;;;;;19.11;84.89;102595.13;5032466;28;20566;-51
2022/07/08 09:38:07;;;;;;;2.90;2.53;;;;;;;18.98;85.71;102604.06;5054241;28;20434;-50
2022/07/08 09:40:36;;;;;;;2.50;2.40;;;;;;;18.98;85.65;102606.75;5054482;28;20431;-48
2022/07/08 09:43:13;;;;;;;2.33;2.23;;;;;;;18.94;85.60;102610.91;5054204;28;20843;-50
2022/07/08 09:45:41;;;;;;;2.20;2.10;;;;;;;18.82;85.17;102626.06;5054516;28;20517;-50
2022/07/08 09:48:10;;;;;;;2.97;2.80;;;;;;;18.75;82.70;102625.25;5054475;28;20437;-52
2022/07/08 09:50:40;;;;;;;3.33;2.70;;;;;;;19.12;79.53;102616.53;5053752;28;20500;-47
2022/07/08 09:53:29;;;;;;;2.43;2.30;;;;;;;19.82;82.03;102615.03;4952376;28;20807;-46
2022/07/08 09:55:58;;;;;;;2.77;2.57;;;;;;;19.85;74.99;102606.50;4933906;29;20558;-49
2022/07/08 09:58:28;;;;;;;2.83;2.50;;;;;;;20.14;73.64;102602.41;4933932;28;20448;-54
2022/07/08 10:00:57;;;;;;;2.83;2.73;;;;;;;20.34;71.87;102593.19;4933390;28;20433;-49
2022/07/08 10:03:25;;;;;;;2.60;2.40;;;;;;;20.01;71.91;102600.59;4932917;29;20436;-50
2022/07/08 10:05:54;;;;;;;2.50;2.30;;;;;;;19.68;73.00;102594.47;4933409;29;20460;-48
2022/07/08 10:08:24;;;;;;;3.23;3.00;;;;;;;19.81;72.16;102607.94;4933461;29;20429;-55
2022/07/08 10:10:56;;;;;;;2.83;2.63;;;;;;;20.05;68.91;102596.41;4933434;28;20798;-55
2022/07/08 10:13:24;;;;;;;3.50;2.73;;;;;;;19.71;68.64;102602.16;4933445;29;20881;-54
2022/07/08 10:15:56;;;;;;;2.90;2.70;;;;;;;19.71;71.41;102607.56;4933215;28;20568;-55
2022/07/08 10:18:31;;;;;;;3.13;2.87;;;;;;;19.98;69.41;102592.88;4933753;29;20519;-51
2022/07/08 10:21:02;;;;;;;3.60;3.40;;;;;;;20.26;67.68;102601.56;4933234;28;21224;-53
2022/07/08 10:23:35;;;;;;;3.57;3.40;;;;;;;20.24;68.43;102592.81;4932885;29;20439;-52
2022/07/08 10:26:06;;;;;;;3.90;3.53;;;;;;;20.20;69.11;102594.28;4933443;29;20467;-54
2022/07/08 10:28:34;;;;;;;4.27;4.00;;;;;;;20.53;65.16;102583.28;4933335;29;20535;-48
2022/07/08 10:31:02;;;;;;;3.80;3.70;;;;;;;20.13;68.17;102590.75;4933077;28;20541;-50
2022/07/08 10:33:31;;;;;;;4.47;4.17;;;;;;;19.77;69.42;102593.19;4990046;28;20458;-50
2022/07/08 10:36:05;;;;;;;4.13;4.03;;;;;;;19.54;67.92;102598.22;5048761;28;20930;-51
2022/07/08 10:38:36;;;;;;;4.47;4.27;;;;;;;19.53;66.90;102594.72;5053275;28;20439;-53
2022/07/08 10:41:08;;;;;;;4.60;4.37;;;;;;;19.91;67.56;102597.53;5052870;28;20546;-50
2022/07/08 10:43:36;;;;;;;5.37;4.67;;;;;;;19.95;65.63;102604.16;5052691;28;20453;-51
2022/07/08 10:46:10;;;;;;;5.37;5.07;;;;;;;20.63;68.12;102601.78;5053169;28;20520;-53
2022/07/08 10:48:57;;;;;;;6.23;4.10;;;;;;;20.88;64.14;102602.63;5053284;28;20437;-52
2022/07/08 10:51:46;;;;;;;4.80;3.80;;;;;;;21.10;64.16;102598.56;5052907;28;20549;-50
2022/07/08 10:54:32;;;;;;;3.67;3.40;;;;;;;21.28;61.58;102595.88;5052974;28;20451;-48
2022/07/08 10:57:02;;;;;;;4.50;4.17;;;;;;;21.05;64.31;102603.78;5052920;28;20785;-54
2022/07/08 10:59:31;;;;;;;5.00;3.60;;;;;;;21.00;62.12;102600.88;5053308;28;20677;-49
2022/07/08 11:02:04;;;;;;;4.20;3.90;;;;;;;20.68;59.68;102580.28;5053247;28;20996;-47
2022/07/08 11:04:43;;;;;;;3.93;3.63;;;;;;;20.97;60.94;102598.59;5053810;28;20435;-51
2022/07/08 11:07:26;;;;;;;4.53;4.13;;;;;;;20.90;62.40;102600.56;5053422;28;20478;-48
2022/07/08 11:09:55;;;;;;;5.00;4.60;;;;;;;20.68;65.21;102604.66;5053018;28;20441;-54
2022/07/08 11:12:26;;;;;;;4.63;4.17;;;;;;;20.76;61.27;102601.69;5052663;28;20494;-54
2022/07/08 11:14:55;;;;;;;4.50;4.10;;;;;;;20.83;60.24;102611.44;5052919;28;20485;-52
2022/07/08 11:17:24;;;;;;;3.87;3.57;;;;;;;20.46;61.25;102600.66;5053190;28;20469;-49
2022/07/08 11:19:54;;;;;;;7.00;4.77;;;;;;;20.56;62.82;102599.13;5053242;28;20531;-52
2022/07/08 11:22:23;;;;;;;4.10;3.80;;;;;;;20.90;62.64;102600.56;5052541;28;20884;-51
2022/07/08 11:24:55;;;;;;;4.47;4.07;;;;;;;21.02;61.52;102593.38;5053318;28;20522;-50
2022/07/08 11:27:31;;;;;;;4.77;3.87;;;;;;;21.04;64.61;102596.69;5052903;28;20451;-49